ΕΜΥ, Εθνική Μετεωρολογική Υπηρεσία - Δελτία Καιρού, Προγνώσεις

ΑΕΡΟΝΑΥΤΙΛΙΑ

GREEK AIRPORTS CODES

TAF LGST 311700Z 3118/0103 VRB05KT 9999 FEW020 SCT030 TEMPO 3118/3121 20010G20KT PROB30 TEMPO 0100/0103 5000 RA SCT012 FEW018TCU BKN080 PROB30 TEMPO 0100/0103 3000 TSRA SCT010 FEW016CB BKN080=

EUROPEAN AIRPORTS CODES